createdAt,value
2023-01-13T05:13:26.597Z,31.70
2023-01-13T05:25:26.495Z,31.65
2023-01-13T05:26:26.550Z,31.67
2023-01-13T05:27:26.458Z,31.70
2023-01-13T05:28:26.452Z,31.71
2023-01-13T05:29:26.447Z,31.71
2023-01-13T05:30:26.425Z,31.69
2023-01-13T05:31:26.445Z,31.66
2023-01-13T05:32:26.415Z,31.65
2023-01-13T05:33:26.401Z,31.66
2023-01-13T05:34:26.395Z,31.70
2023-01-13T05:35:26.390Z,31.67
2023-01-13T05:36:26.368Z,31.71
2023-01-13T05:37:26.361Z,31.74
2023-01-13T05:38:26.356Z,31.71
2023-01-13T05:39:26.343Z,31.70
2023-01-13T05:40:26.343Z,31.74
2023-01-13T05:41:26.320Z,31.73
2023-01-13T05:42:26.354Z,31.71
2023-01-13T05:43:26.304Z,31.71
2023-01-13T05:44:26.292Z,31.70
2023-01-13T05:45:26.281Z,31.68
2023-01-13T05:46:26.309Z,31.70
2023-01-13T05:47:26.265Z,31.70
2023-01-13T05:48:26.257Z,31.70
2023-01-13T05:49:27.208Z,31.69
2023-01-13T05:50:26.233Z,31.70
2023-01-13T05:51:26.460Z,31.69
2023-01-13T05:52:26.218Z,31.70
2023-01-13T05:53:26.214Z,31.70
2023-01-13T05:54:26.196Z,31.71
2023-01-13T05:55:26.186Z,31.67
2023-01-13T05:56:26.184Z,31.71
2023-01-13T05:57:26.168Z,31.74
2023-01-13T05:58:26.189Z,31.71
2023-01-13T05:59:26.161Z,31.73
2023-01-13T06:00:26.148Z,31.73
2023-01-13T06:01:26.285Z,31.73
2023-01-13T06:02:26.121Z,31.73
2023-01-13T06:03:26.111Z,31.68
2023-01-13T06:04:26.132Z,31.70
2023-01-13T06:05:26.099Z,31.67
2023-01-13T06:06:26.083Z,31.73
2023-01-13T06:07:26.077Z,31.67
2023-01-13T06:08:26.104Z,31.60
2023-01-13T06:09:26.052Z,31.49
2023-01-13T06:10:26.046Z,31.22
2023-01-13T06:11:26.075Z,31.19
2023-01-13T06:12:26.023Z,31.03
2023-01-13T06:13:26.011Z,30.94
2023-01-13T06:14:26.042Z,30.83
2023-01-13T06:15:25.997Z,30.77
2023-01-13T06:16:26.006Z,30.77
2023-01-13T06:17:26.217Z,30.88
2023-01-13T06:18:25.971Z,31.07
2023-01-13T06:19:25.962Z,31.15
2023-01-13T06:20:25.968Z,31.28
2023-01-13T06:21:26.216Z,31.41
2023-01-13T06:22:25.938Z,31.42
2023-01-13T06:23:25.936Z,31.45
2023-01-13T06:24:26.222Z,31.51
2023-01-13T06:25:25.905Z,31.51
2023-01-13T06:26:25.909Z,31.58
2023-01-13T06:27:25.881Z,31.52
2023-01-13T06:28:26.223Z,31.59
2023-01-13T06:29:25.871Z,31.66
2023-01-13T06:30:25.909Z,31.70
2023-01-13T06:31:25.855Z,31.73
2023-01-13T06:32:25.840Z,31.77
2023-01-13T06:33:26.229Z,31.82
2023-01-13T06:34:25.817Z,31.80
2023-01-13T06:35:25.812Z,31.79
2023-01-13T06:36:26.226Z,31.82
2023-01-13T06:37:25.789Z,31.82
2023-01-13T06:38:25.794Z,31.86
2023-01-13T06:39:25.767Z,31.90
2023-01-13T06:40:26.909Z,31.94
2023-01-13T06:41:25.751Z,31.99
2023-01-13T06:42:25.741Z,31.95
2023-01-13T06:43:26.223Z,31.99
2023-01-13T06:44:25.727Z,31.93
2023-01-13T06:45:25.717Z,32.02
2023-01-13T06:46:25.868Z,31.94
2023-01-13T06:47:25.692Z,31.97
2023-01-13T06:48:26.484Z,32.02
2023-01-13T06:49:25.676Z,32.02
2023-01-13T06:50:25.671Z,32.04
2023-01-13T06:51:25.654Z,32.10
2023-01-13T06:52:25.729Z,32.27
2023-01-13T06:54:27.701Z,32.49
2023-01-13T06:55:25.800Z,32.55
2023-01-13T06:56:25.604Z,32.61
2023-01-13T06:57:25.603Z,32.61
2023-01-13T06:58:25.742Z,32.62
2023-01-13T06:59:25.579Z,32.92
2023-01-13T07:02:25.703Z,33.11
2023-01-13T07:03:25.729Z,33.29
2023-01-13T07:11:25.738Z,33.38
2023-01-13T07:14:26.467Z,33.50
2023-01-13T07:15:25.817Z,33.39
2023-01-13T07:18:25.820Z,33.63
2023-01-13T07:24:25.799Z,33.64
2023-01-13T07:29:25.740Z,33.64
2023-01-13T07:34:25.774Z,33.89
2023-01-13T08:33:25.731Z,33.57
2023-01-13T09:07:27.612Z,33.36
2023-01-13T10:38:26.763Z,32.24
2023-01-13T10:52:27.063Z,32.03
2023-01-13T11:09:30.711Z,31.84
2023-01-13T11:11:26.457Z,31.78
2023-01-13T22:45:16.719Z,31.69
2023-01-13T22:47:16.698Z,31.70
2023-01-13T22:48:16.685Z,31.69
2023-01-13T22:49:16.678Z,31.66
2023-01-13T22:50:16.687Z,31.70
2023-01-13T22:51:16.676Z,31.69
2023-01-13T22:52:16.651Z,31.72
2023-01-13T22:53:16.641Z,31.65
2023-01-13T22:54:16.638Z,31.67
2023-01-13T22:55:16.631Z,31.69
2023-01-13T22:56:16.615Z,31.65
2023-01-13T22:57:16.608Z,31.70
2023-01-13T22:58:16.595Z,31.69
2023-01-13T22:59:16.607Z,31.67
2023-01-13T23:00:16.572Z,31.72
2023-01-13T23:01:16.697Z,31.72
2023-01-13T23:02:16.592Z,31.66
2023-01-13T23:03:16.543Z,31.66
2023-01-13T23:04:16.700Z,31.63
2023-01-13T23:05:16.524Z,31.65
2023-01-13T23:06:16.516Z,31.67
2023-01-13T23:07:16.512Z,31.69
2023-01-13T23:08:16.494Z,31.67
2023-01-13T23:09:16.490Z,31.69
2023-01-13T23:10:16.478Z,31.65
2023-01-13T23:11:16.468Z,31.69
2023-01-13T23:12:16.459Z,31.64
2023-01-13T23:13:16.447Z,31.66
2023-01-13T23:14:16.438Z,31.64
2023-01-13T23:15:16.428Z,31.67
2023-01-13T23:16:16.426Z,31.66
2023-01-13T23:17:16.413Z,31.63
2023-01-13T23:18:16.422Z,31.70
2023-01-13T23:19:16.442Z,31.67
2023-01-13T23:20:16.382Z,31.66
2023-01-13T23:21:16.374Z,31.67
2023-01-13T23:22:16.365Z,31.66
2023-01-13T23:23:16.355Z,31.67
2023-01-13T23:24:16.342Z,31.69
2023-01-13T23:25:16.338Z,31.67
2023-01-13T23:26:16.325Z,31.67
2023-01-13T23:27:16.313Z,31.67
2023-01-13T23:28:16.312Z,31.70
2023-01-13T23:29:16.299Z,31.66
2023-01-13T23:30:16.285Z,31.71
2023-01-13T23:31:16.323Z,31.67
2023-01-13T23:32:16.280Z,31.67
2023-01-13T23:33:16.270Z,31.67
2023-01-13T23:34:16.269Z,31.65
2023-01-13T23:35:16.260Z,31.63
2023-01-13T23:36:16.232Z,31.66
2023-01-13T23:37:16.220Z,31.59
2023-01-13T23:38:16.209Z,31.62
2023-01-13T23:39:16.206Z,31.66
2023-01-13T23:40:16.221Z,31.63
2023-01-13T23:41:16.210Z,31.62
2023-01-13T23:42:16.172Z,31.63
2023-01-13T23:43:16.160Z,31.63
2023-01-13T23:44:16.157Z,31.63
2023-01-13T23:45:16.140Z,31.65
2023-01-13T23:46:16.142Z,31.62
2023-01-13T23:47:16.121Z,31.61
2023-01-13T23:48:16.113Z,31.67
2023-01-13T23:49:16.107Z,31.69
2023-01-13T23:50:16.120Z,31.66
2023-01-13T23:51:16.084Z,31.61
2023-01-13T23:52:16.085Z,31.66
2023-01-13T23:53:16.063Z,31.66
2023-01-13T23:54:16.054Z,31.63
2023-01-13T23:55:16.054Z,31.65
2023-01-13T23:56:16.048Z,31.65
2023-01-13T23:57:16.026Z,31.63
2023-01-13T23:58:16.013Z,31.65
2023-01-13T23:59:16.011Z,31.62
